Terminal Aerodrome Forecast
Issued by NWS Pendleton, OR

Home | Current Version | Previous Version | Text Only | Print | Product List | Glossary On
Versions: 1 2 3 4 5 6 7 8 9 10 11 12
381
FTUS46 KPDT 231126
TAFPDT
TAF
KPDT 231126Z 2312/2412 14007KT P6SM SCT250
     FM231800 28007KT P6SM FEW250
     FM232100 28014G21KT P6SM FEW090 FEW250
     FM240400 26020G30KT P6SM FEW060=

USA.gov is the U.S. government's official web portal to all federal, state and local government web resources and services.